sensor_id;sensor_type;location;lat;lon;timestamp;P1;durP1;ratioP1;P2;durP2;ratioP2
1366;SDS011;16877;48.810;9.282;2023-05-10T00:01:14;2.10;;;0.80;;
1366;SDS011;16877;48.810;9.282;2023-05-10T00:03:42;2.40;;;1.03;;
1366;SDS011;16877;48.810;9.282;2023-05-10T00:06:09;2.23;;;1.00;;
1366;SDS011;16877;48.810;9.282;2023-05-10T00:08:37;2.30;;;0.93;;
1366;SDS011;16877;48.810;9.282;2023-05-10T00:11:08;2.47;;;0.90;;
1366;SDS011;16877;48.810;9.282;2023-05-10T00:13:36;1.73;;;0.73;;
1366;SDS011;16877;48.810;9.282;2023-05-10T00:16:18;3.00;;;0.67;;
1366;SDS011;16877;48.810;9.282;2023-05-10T00:18:46;1.50;;;0.50;;
1366;SDS011;16877;48.810;9.282;2023-05-10T00:21:13;1.57;;;0.60;;
1366;SDS011;16877;48.810;9.282;2023-05-10T00:23:41;1.60;;;0.57;;
1366;SDS011;16877;48.810;9.282;2023-05-10T00:26:10;1.60;;;0.50;;
1366;SDS011;16877;48.810;9.282;2023-05-10T00:28:37;1.87;;;0.60;;
1366;SDS011;16877;48.810;9.282;2023-05-10T00:31:05;1.97;;;0.60;;
1366;SDS011;16877;48.810;9.282;2023-05-10T00:33:33;2.83;;;0.60;;
1366;SDS011;16877;48.810;9.282;2023-05-10T00:36:00;3.70;;;0.60;;
1366;SDS011;16877;48.810;9.282;2023-05-10T00:38:28;1.90;;;0.60;;
1366;SDS011;16877;48.810;9.282;2023-05-10T00:40:56;1.40;;;0.40;;
1366;SDS011;16877;48.810;9.282;2023-05-10T00:43:24;1.47;;;0.40;;
1366;SDS011;16877;48.810;9.282;2023-05-10T00:45:56;1.77;;;0.60;;
1366;SDS011;16877;48.810;9.282;2023-05-10T00:48:25;1.70;;;0.50;;
1366;SDS011;16877;48.810;9.282;2023-05-10T00:50:52;1.60;;;0.40;;
1366;SDS011;16877;48.810;9.282;2023-05-10T00:53:20;2.07;;;0.43;;
1366;SDS011;16877;48.810;9.282;2023-05-10T00:55:53;2.00;;;0.40;;
1366;SDS011;16877;48.810;9.282;2023-05-10T00:58:21;1.70;;;0.50;;
1366;SDS011;16877;48.810;9.282;2023-05-10T01:00:50;1.93;;;0.50;;
1366;SDS011;16877;48.810;9.282;2023-05-10T01:03:19;1.40;;;0.40;;
1366;SDS011;16877;48.810;9.282;2023-05-10T01:05:47;2.17;;;0.50;;
1366;SDS011;16877;48.810;9.282;2023-05-10T01:08:15;1.50;;;0.37;;
1366;SDS011;16877;48.810;9.282;2023-05-10T01:10:42;1.40;;;0.40;;
1366;SDS011;16877;48.810;9.282;2023-05-10T01:13:10;1.57;;;0.30;;
1366;SDS011;16877;48.810;9.282;2023-05-10T01:15:39;1.50;;;0.40;;
1366;SDS011;16877;48.810;9.282;2023-05-10T01:18:11;1.70;;;0.43;;
1366;SDS011;16877;48.810;9.282;2023-05-10T01:20:40;1.50;;;0.40;;
1366;SDS011;16877;48.810;9.282;2023-05-10T01:23:18;1.43;;;0.40;;
1366;SDS011;16877;48.810;9.282;2023-05-10T01:26:07;1.50;;;0.40;;
1366;SDS011;16877;48.810;9.282;2023-05-10T01:29:08;1.80;;;0.50;;
1366;SDS011;16877;48.810;9.282;2023-05-10T01:34:52;1.40;;;0.30;;
1366;SDS011;16877;48.810;9.282;2023-05-10T01:37:26;1.40;;;0.40;;
1366;SDS011;16877;48.810;9.282;2023-05-10T01:40:06;1.40;;;0.30;;
1366;SDS011;16877;48.810;9.282;2023-05-10T01:42:43;1.40;;;0.40;;
1366;SDS011;16877;48.810;9.282;2023-05-10T01:45:18;1.40;;;0.40;;
1366;SDS011;16877;48.810;9.282;2023-05-10T01:47:54;1.83;;;0.50;;
1366;SDS011;16877;48.810;9.282;2023-05-10T01:50:31;4.43;;;0.43;;
1366;SDS011;16877;48.810;9.282;2023-05-10T01:53:02;1.40;;;0.30;;
1366;SDS011;16877;48.810;9.282;2023-05-10T01:55:33;1.40;;;0.30;;
1366;SDS011;16877;48.810;9.282;2023-05-10T01:58:05;1.43;;;0.47;;
1366;SDS011;16877;48.810;9.282;2023-05-10T02:00:35;1.40;;;0.40;;
1366;SDS011;16877;48.810;9.282;2023-05-10T02:03:11;1.50;;;0.50;;
1366;SDS011;16877;48.810;9.282;2023-05-10T02:05:40;1.50;;;0.40;;
1366;SDS011;16877;48.810;9.282;2023-05-10T02:08:10;1.40;;;0.40;;
1366;SDS011;16877;48.810;9.282;2023-05-10T02:10:38;1.40;;;0.40;;
1366;SDS011;16877;48.810;9.282;2023-05-10T02:13:07;1.73;;;0.60;;
1366;SDS011;16877;48.810;9.282;2023-05-10T02:15:35;1.40;;;0.30;;
1366;SDS011;16877;48.810;9.282;2023-05-10T02:18:05;1.40;;;0.40;;
1366;SDS011;16877;48.810;9.282;2023-05-10T02:20:38;1.40;;;0.40;;
1366;SDS011;16877;48.810;9.282;2023-05-10T02:23:07;1.60;;;0.50;;
1366;SDS011;16877;48.810;9.282;2023-05-10T02:25:35;2.10;;;0.47;;
1366;SDS011;16877;48.810;9.282;2023-05-10T02:28:04;1.50;;;0.40;;
1366;SDS011;16877;48.810;9.282;2023-05-10T02:30:33;1.50;;;0.40;;
1366;SDS011;16877;48.810;9.282;2023-05-10T02:33:02;1.80;;;0.60;;
1366;SDS011;16877;48.810;9.282;2023-05-10T02:35:36;1.43;;;0.40;;
1366;SDS011;16877;48.810;9.282;2023-05-10T02:38:05;1.50;;;0.40;;
1366;SDS011;16877;48.810;9.282;2023-05-10T02:40:34;1.47;;;0.50;;
1366;SDS011;16877;48.810;9.282;2023-05-10T02:43:03;1.60;;;0.60;;
1366;SDS011;16877;48.810;9.282;2023-05-10T02:45:31;1.90;;;0.80;;
1366;SDS011;16877;48.810;9.282;2023-05-10T02:48:01;4.17;;;0.80;;
1366;SDS011;16877;48.810;9.282;2023-05-10T02:50:32;2.07;;;0.80;;
1366;SDS011;16877;48.810;9.282;2023-05-10T02:53:04;1.60;;;0.53;;
1366;SDS011;16877;48.810;9.282;2023-05-10T02:55:47;1.70;;;0.70;;
1366;SDS011;16877;48.810;9.282;2023-05-10T02:58:23;1.73;;;0.77;;
1366;SDS011;16877;48.810;9.282;2023-05-10T03:00:51;1.73;;;0.60;;
1366;SDS011;16877;48.810;9.282;2023-05-10T03:03:23;1.70;;;0.70;;
1366;SDS011;16877;48.810;9.282;2023-05-10T03:05:51;1.80;;;0.73;;
1366;SDS011;16877;48.810;9.282;2023-05-10T03:08:22;2.00;;;0.70;;
1366;SDS011;16877;48.810;9.282;2023-05-10T03:10:54;1.60;;;0.50;;
1366;SDS011;16877;48.810;9.282;2023-05-10T03:13:34;1.70;;;0.60;;
1366;SDS011;16877;48.810;9.282;2023-05-10T03:16:08;1.60;;;0.47;;
1366;SDS011;16877;48.810;9.282;2023-05-10T03:18:41;1.50;;;0.50;;
1366;SDS011;16877;48.810;9.282;2023-05-10T03:21:11;1.70;;;0.60;;
1366;SDS011;16877;48.810;9.282;2023-05-10T03:23:43;1.50;;;0.40;;
1366;SDS011;16877;48.810;9.282;2023-05-10T03:26:13;1.50;;;0.50;;
1366;SDS011;16877;48.810;9.282;2023-05-10T03:28:46;1.87;;;0.57;;
1366;SDS011;16877;48.810;9.282;2023-05-10T03:31:15;1.63;;;0.57;;
1366;SDS011;16877;48.810;9.282;2023-05-10T03:33:46;3.17;;;0.80;;
1366;SDS011;16877;48.810;9.282;2023-05-10T03:36:14;1.80;;;0.63;;
1366;SDS011;16877;48.810;9.282;2023-05-10T03:38:43;2.53;;;0.77;;
1366;SDS011;16877;48.810;9.282;2023-05-10T03:41:11;1.57;;;0.53;;
1366;SDS011;16877;48.810;9.282;2023-05-10T03:43:39;1.60;;;0.60;;
1366;SDS011;16877;48.810;9.282;2023-05-10T03:46:06;1.50;;;0.53;;
1366;SDS011;16877;48.810;9.282;2023-05-10T03:48:34;1.70;;;0.77;;
1366;SDS011;16877;48.810;9.282;2023-05-10T03:51:04;1.60;;;0.60;;
1366;SDS011;16877;48.810;9.282;2023-05-10T03:53:32;1.70;;;0.60;;
1366;SDS011;16877;48.810;9.282;2023-05-10T03:56:02;1.60;;;0.50;;
1366;SDS011;16877;48.810;9.282;2023-05-10T03:58:30;1.70;;;0.60;;
1366;SDS011;16877;48.810;9.282;2023-05-10T04:00:57;1.70;;;0.60;;
1366;SDS011;16877;48.810;9.282;2023-05-10T04:03:24;1.93;;;0.57;;
1366;SDS011;16877;48.810;9.282;2023-05-10T04:05:58;1.60;;;0.50;;
1366;SDS011;16877;48.810;9.282;2023-05-10T04:08:26;1.67;;;0.50;;
1366;SDS011;16877;48.810;9.282;2023-05-10T04:11:06;1.70;;;0.70;;
1366;SDS011;16877;48.810;9.282;2023-05-10T04:13:33;1.60;;;0.60;;
1366;SDS011;16877;48.810;9.282;2023-05-10T04:16:02;1.50;;;0.50;;
1366;SDS011;16877;48.810;9.282;2023-05-10T04:18:30;1.57;;;0.50;;
1366;SDS011;16877;48.810;9.282;2023-05-10T04:20:58;2.37;;;0.90;;
1366;SDS011;16877;48.810;9.282;2023-05-10T04:23:26;4.17;;;0.70;;
1366;SDS011;16877;48.810;9.282;2023-05-10T04:25:58;4.53;;;0.90;;
1366;SDS011;16877;48.810;9.282;2023-05-10T04:28:28;5.77;;;1.00;;
1366;SDS011;16877;48.810;9.282;2023-05-10T04:31:00;2.20;;;0.80;;
1366;SDS011;16877;48.810;9.282;2023-05-10T04:33:27;1.70;;;0.60;;
1366;SDS011;16877;48.810;9.282;2023-05-10T04:35:56;2.97;;;1.10;;
1366;SDS011;16877;48.810;9.282;2023-05-10T04:38:23;1.60;;;0.70;;
1366;SDS011;16877;48.810;9.282;2023-05-10T04:40:52;1.87;;;0.67;;
1366;SDS011;16877;48.810;9.282;2023-05-10T04:43:19;2.17;;;0.87;;
1366;SDS011;16877;48.810;9.282;2023-05-10T04:45:48;3.53;;;1.27;;
1366;SDS011;16877;48.810;9.282;2023-05-10T04:48:17;2.20;;;1.10;;
1366;SDS011;16877;48.810;9.282;2023-05-10T04:50:44;4.00;;;1.73;;
1366;SDS011;16877;48.810;9.282;2023-05-10T04:53:12;4.67;;;1.97;;
1366;SDS011;16877;48.810;9.282;2023-05-10T04:55:40;3.70;;;1.83;;
1366;SDS011;16877;48.810;9.282;2023-05-10T04:58:09;2.63;;;1.37;;
1366;SDS011;16877;48.810;9.282;2023-05-10T05:00:41;2.20;;;1.20;;
1366;SDS011;16877;48.810;9.282;2023-05-10T05:03:12;3.13;;;1.30;;
1366;SDS011;16877;48.810;9.282;2023-05-10T05:05:44;2.20;;;1.00;;
1366;SDS011;16877;48.810;9.282;2023-05-10T05:08:12;2.30;;;1.30;;
1366;SDS011;16877;48.810;9.282;2023-05-10T05:10:43;2.87;;;1.40;;
1366;SDS011;16877;48.810;9.282;2023-05-10T05:13:22;3.37;;;1.40;;
1366;SDS011;16877;48.810;9.282;2023-05-10T05:15:50;1.83;;;0.97;;
1366;SDS011;16877;48.810;9.282;2023-05-10T05:18:30;2.17;;;1.07;;
1366;SDS011;16877;48.810;9.282;2023-05-10T05:20:58;2.47;;;1.07;;
1366;SDS011;16877;48.810;9.282;2023-05-10T05:23:25;2.37;;;1.13;;
1366;SDS011;16877;48.810;9.282;2023-05-10T05:25:53;1.77;;;0.80;;
1366;SDS011;16877;48.810;9.282;2023-05-10T05:28:21;2.13;;;1.03;;
1366;SDS011;16877;48.810;9.282;2023-05-10T05:30:49;2.07;;;1.10;;
1366;SDS011;16877;48.810;9.282;2023-05-10T05:33:18;2.13;;;1.00;;
1366;SDS011;16877;48.810;9.282;2023-05-10T05:35:49;2.07;;;0.90;;
1366;SDS011;16877;48.810;9.282;2023-05-10T05:38:16;6.13;;;1.57;;
1366;SDS011;16877;48.810;9.282;2023-05-10T05:40:44;2.67;;;0.93;;
1366;SDS011;16877;48.810;9.282;2023-05-10T05:43:11;2.00;;;0.80;;
1366;SDS011;16877;48.810;9.282;2023-05-10T05:45:38;2.37;;;1.17;;
1366;SDS011;16877;48.810;9.282;2023-05-10T05:48:06;2.00;;;0.90;;
1366;SDS011;16877;48.810;9.282;2023-05-10T05:50:33;5.47;;;1.20;;
1366;SDS011;16877;48.810;9.282;2023-05-10T05:53:02;1.97;;;0.87;;
1366;SDS011;16877;48.810;9.282;2023-05-10T05:55:29;1.97;;;0.80;;
1366;SDS011;16877;48.810;9.282;2023-05-10T05:57:57;3.10;;;0.90;;
1366;SDS011;16877;48.810;9.282;2023-05-10T06:00:25;2.33;;;0.87;;
1366;SDS011;16877;48.810;9.282;2023-05-10T06:02:52;2.27;;;0.80;;
1366;SDS011;16877;48.810;9.282;2023-05-10T06:05:28;2.87;;;1.03;;
1366;SDS011;16877;48.810;9.282;2023-05-10T06:07:56;2.60;;;0.90;;
1366;SDS011;16877;48.810;9.282;2023-05-10T06:10:25;2.87;;;1.00;;
1366;SDS011;16877;48.810;9.282;2023-05-10T06:12:52;2.37;;;1.07;;
1366;SDS011;16877;48.810;9.282;2023-05-10T06:15:20;2.33;;;1.10;;
1366;SDS011;16877;48.810;9.282;2023-05-10T06:17:47;2.17;;;0.80;;
1366;SDS011;16877;48.810;9.282;2023-05-10T06:20:17;2.30;;;1.23;;
1366;SDS011;16877;48.810;9.282;2023-05-10T06:22:45;4.60;;;1.23;;
1366;SDS011;16877;48.810;9.282;2023-05-10T06:25:13;2.70;;;1.10;;
1366;SDS011;16877;48.810;9.282;2023-05-10T06:27:44;2.70;;;1.07;;
1366;SDS011;16877;48.810;9.282;2023-05-10T06:30:12;2.00;;;0.80;;
1366;SDS011;16877;48.810;9.282;2023-05-10T06:32:40;2.10;;;1.07;;
1366;SDS011;16877;48.810;9.282;2023-05-10T06:35:09;2.03;;;0.83;;
1366;SDS011;16877;48.810;9.282;2023-05-10T06:37:36;2.20;;;1.20;;
1366;SDS011;16877;48.810;9.282;2023-05-10T06:40:04;2.70;;;1.00;;
1366;SDS011;16877;48.810;9.282;2023-05-10T06:42:32;2.37;;;1.00;;
1366;SDS011;16877;48.810;9.282;2023-05-10T06:45:01;3.10;;;1.27;;
1366;SDS011;16877;48.810;9.282;2023-05-10T06:47:30;2.67;;;1.10;;
1366;SDS011;16877;48.810;9.282;2023-05-10T06:49:57;2.33;;;0.70;;
1366;SDS011;16877;48.810;9.282;2023-05-10T06:52:25;2.30;;;1.23;;
1366;SDS011;16877;48.810;9.282;2023-05-10T06:54:53;2.70;;;0.93;;
1366;SDS011;16877;48.810;9.282;2023-05-10T06:57:21;2.00;;;0.93;;
1366;SDS011;16877;48.810;9.282;2023-05-10T06:59:48;2.33;;;0.93;;
1366;SDS011;16877;48.810;9.282;2023-05-10T07:02:18;3.03;;;1.10;;
1366;SDS011;16877;48.810;9.282;2023-05-10T07:04:46;3.17;;;0.70;;
1366;SDS011;16877;48.810;9.282;2023-05-10T07:07:14;1.93;;;0.73;;
1366;SDS011;16877;48.810;9.282;2023-05-10T07:09:41;2.00;;;0.80;;
1366;SDS011;16877;48.810;9.282;2023-05-10T07:12:13;2.43;;;0.87;;
1366;SDS011;16877;48.810;9.282;2023-05-10T07:14:40;2.73;;;1.07;;
1366;SDS011;16877;48.810;9.282;2023-05-10T07:17:09;2.53;;;1.00;;
1366;SDS011;16877;48.810;9.282;2023-05-10T07:19:39;2.80;;;1.30;;
1366;SDS011;16877;48.810;9.282;2023-05-10T07:22:06;2.20;;;1.03;;
1366;SDS011;16877;48.810;9.282;2023-05-10T07:24:34;2.03;;;0.90;;
1366;SDS011;16877;48.810;9.282;2023-05-10T07:27:01;2.07;;;1.00;;
1366;SDS011;16877;48.810;9.282;2023-05-10T07:29:29;2.10;;;0.70;;
1366;SDS011;16877;48.810;9.282;2023-05-10T07:31:57;1.97;;;0.93;;
1366;SDS011;16877;48.810;9.282;2023-05-10T07:34:24;1.70;;;0.80;;
1366;SDS011;16877;48.810;9.282;2023-05-10T07:36:53;2.27;;;1.10;;
1366;SDS011;16877;48.810;9.282;2023-05-10T07:39:20;2.37;;;1.00;;
1366;SDS011;16877;48.810;9.282;2023-05-10T07:41:49;3.50;;;1.27;;
1366;SDS011;16877;48.810;9.282;2023-05-10T07:44:16;4.20;;;1.17;;
1366;SDS011;16877;48.810;9.282;2023-05-10T07:46:45;1.83;;;0.73;;
1366;SDS011;16877;48.810;9.282;2023-05-10T07:49:12;1.70;;;0.70;;
1366;SDS011;16877;48.810;9.282;2023-05-10T07:51:40;2.77;;;0.80;;
1366;SDS011;16877;48.810;9.282;2023-05-10T07:54:09;2.60;;;1.30;;
1366;SDS011;16877;48.810;9.282;2023-05-10T07:56:36;1.70;;;0.77;;
1366;SDS011;16877;48.810;9.282;2023-05-10T07:59:04;3.77;;;1.20;;
1366;SDS011;16877;48.810;9.282;2023-05-10T08:01:34;1.80;;;1.00;;
1366;SDS011;16877;48.810;9.282;2023-05-10T08:04:09;2.03;;;0.80;;
1366;SDS011;16877;48.810;9.282;2023-05-10T08:06:40;3.80;;;1.00;;
1366;SDS011;16877;48.810;9.282;2023-05-10T08:12:19;2.10;;;0.97;;
1366;SDS011;16877;48.810;9.282;2023-05-10T08:14:58;2.77;;;1.30;;
1366;SDS011;16877;48.810;9.282;2023-05-10T08:17:30;3.43;;;1.00;;
1366;SDS011;16877;48.810;9.282;2023-05-10T08:20:04;2.17;;;0.60;;
1366;SDS011;16877;48.810;9.282;2023-05-10T08:22:34;2.93;;;0.90;;
1366;SDS011;16877;48.810;9.282;2023-05-10T08:28:02;1.83;;;0.73;;
1366;SDS011;16877;48.810;9.282;2023-05-10T08:30:30;3.50;;;0.90;;
1366;SDS011;16877;48.810;9.282;2023-05-10T08:32:58;1.83;;;0.80;;
1366;SDS011;16877;48.810;9.282;2023-05-10T08:35:33;2.30;;;0.90;;
1366;SDS011;16877;48.810;9.282;2023-05-10T08:38:02;2.43;;;0.90;;
1366;SDS011;16877;48.810;9.282;2023-05-10T08:40:34;2.03;;;0.83;;
1366;SDS011;16877;48.810;9.282;2023-05-10T08:43:04;2.20;;;1.10;;
1366;SDS011;16877;48.810;9.282;2023-05-10T08:45:36;2.73;;;0.90;;
1366;SDS011;16877;48.810;9.282;2023-05-10T08:48:05;2.43;;;0.83;;
1366;SDS011;16877;48.810;9.282;2023-05-10T08:50:36;2.20;;;0.80;;
1366;SDS011;16877;48.810;9.282;2023-05-10T08:53:04;2.07;;;0.90;;
1366;SDS011;16877;48.810;9.282;2023-05-10T08:55:34;1.80;;;0.80;;
1366;SDS011;16877;48.810;9.282;2023-05-10T08:58:03;1.80;;;0.70;;
1366;SDS011;16877;48.810;9.282;2023-05-10T09:00:31;1.90;;;1.10;;
1366;SDS011;16877;48.810;9.282;2023-05-10T09:02:58;1.83;;;0.80;;
1366;SDS011;16877;48.810;9.282;2023-05-10T09:05:27;2.20;;;0.70;;
1366;SDS011;16877;48.810;9.282;2023-05-10T09:07:56;1.70;;;0.80;;
1366;SDS011;16877;48.810;9.282;2023-05-10T09:10:23;4.23;;;1.10;;
1366;SDS011;16877;48.810;9.282;2023-05-10T09:12:56;11.87;;;8.57;;
1366;SDS011;16877;48.810;9.282;2023-05-10T09:15:24;8.67;;;6.80;;
1366;SDS011;16877;48.810;9.282;2023-05-10T09:17:52;12.37;;;8.03;;
1366;SDS011;16877;48.810;9.282;2023-05-10T09:20:21;9.00;;;5.40;;
1366;SDS011;16877;48.810;9.282;2023-05-10T09:22:48;7.97;;;5.90;;
1366;SDS011;16877;48.810;9.282;2023-05-10T09:25:16;9.30;;;6.20;;
1366;SDS011;16877;48.810;9.282;2023-05-10T09:27:45;7.73;;;5.57;;
1366;SDS011;16877;48.810;9.282;2023-05-10T09:30:16;5.53;;;4.47;;
1366;SDS011;16877;48.810;9.282;2023-05-10T09:32:44;5.70;;;4.73;;
1366;SDS011;16877;48.810;9.282;2023-05-10T09:35:13;9.77;;;4.97;;
1366;SDS011;16877;48.810;9.282;2023-05-10T09:37:42;6.60;;;4.60;;
1366;SDS011;16877;48.810;9.282;2023-05-10T09:40:11;6.50;;;4.30;;
1366;SDS011;16877;48.810;9.282;2023-05-10T09:42:40;5.27;;;4.00;;
1366;SDS011;16877;48.810;9.282;2023-05-10T09:45:09;7.00;;;4.23;;
1366;SDS011;16877;48.810;9.282;2023-05-10T09:47:38;4.73;;;3.73;;
1366;SDS011;16877;48.810;9.282;2023-05-10T09:50:06;3.97;;;3.13;;
1366;SDS011;16877;48.810;9.282;2023-05-10T09:52:45;4.47;;;2.93;;
1366;SDS011;16877;48.810;9.282;2023-05-10T09:55:14;4.10;;;2.87;;
1366;SDS011;16877;48.810;9.282;2023-05-10T09:57:41;4.97;;;3.40;;
1366;SDS011;16877;48.810;9.282;2023-05-10T10:00:09;4.10;;;3.20;;
1366;SDS011;16877;48.810;9.282;2023-05-10T10:02:45;4.67;;;2.70;;
1366;SDS011;16877;48.810;9.282;2023-05-10T10:05:13;7.60;;;2.90;;
1366;SDS011;16877;48.810;9.282;2023-05-10T10:07:41;3.47;;;2.50;;
1366;SDS011;16877;48.810;9.282;2023-05-10T10:10:09;3.70;;;2.80;;
1366;SDS011;16877;48.810;9.282;2023-05-10T10:12:37;3.07;;;2.23;;
1366;SDS011;16877;48.810;9.282;2023-05-10T10:15:07;4.57;;;2.00;;
1366;SDS011;16877;48.810;9.282;2023-05-10T10:17:35;5.90;;;2.60;;
1366;SDS011;16877;48.810;9.282;2023-05-10T10:20:06;3.43;;;2.40;;
1366;SDS011;16877;48.810;9.282;2023-05-10T10:22:35;2.70;;;1.67;;
1366;SDS011;16877;48.810;9.282;2023-05-10T10:25:04;4.00;;;2.10;;
1366;SDS011;16877;48.810;9.282;2023-05-10T10:27:35;2.97;;;1.73;;
1366;SDS011;16877;48.810;9.282;2023-05-10T10:30:12;2.97;;;1.53;;
1366;SDS011;16877;48.810;9.282;2023-05-10T10:32:55;2.80;;;1.40;;
1366;SDS011;16877;48.810;9.282;2023-05-10T10:35:36;3.50;;;1.60;;
1366;SDS011;16877;48.810;9.282;2023-05-10T10:38:04;6.87;;;1.57;;
1366;SDS011;16877;48.810;9.282;2023-05-10T10:40:34;3.13;;;1.13;;
1366;SDS011;16877;48.810;9.282;2023-05-10T10:43:22;3.90;;;1.50;;
1366;SDS011;16877;48.810;9.282;2023-05-10T10:46:10;3.07;;;1.30;;
1366;SDS011;16877;48.810;9.282;2023-05-10T10:48:39;3.87;;;1.40;;
1366;SDS011;16877;48.810;9.282;2023-05-10T10:51:09;2.67;;;1.03;;
1366;SDS011;16877;48.810;9.282;2023-05-10T10:53:38;4.73;;;1.60;;
1366;SDS011;16877;48.810;9.282;2023-05-10T10:56:07;4.60;;;1.50;;
1366;SDS011;16877;48.810;9.282;2023-05-10T10:58:36;3.67;;;1.63;;
1366;SDS011;16877;48.810;9.282;2023-05-10T11:01:10;3.60;;;1.30;;
1366;SDS011;16877;48.810;9.282;2023-05-10T11:03:39;3.83;;;1.10;;
1366;SDS011;16877;48.810;9.282;2023-05-10T11:06:06;3.63;;;0.80;;
1366;SDS011;16877;48.810;9.282;2023-05-10T11:08:41;2.93;;;1.10;;
1366;SDS011;16877;48.810;9.282;2023-05-10T11:11:09;4.67;;;2.20;;
1366;SDS011;16877;48.810;9.282;2023-05-10T11:13:41;43.80;;;14.93;;
1366;SDS011;16877;48.810;9.282;2023-05-10T11:16:13;42.63;;;12.57;;
1366;SDS011;16877;48.810;9.282;2023-05-10T11:18:51;30.00;;;9.87;;
1366;SDS011;16877;48.810;9.282;2023-05-10T11:21:20;22.33;;;7.23;;
1366;SDS011;16877;48.810;9.282;2023-05-10T11:23:48;22.00;;;7.23;;
1366;SDS011;16877;48.810;9.282;2023-05-10T11:26:17;21.17;;;7.40;;
1366;SDS011;16877;48.810;9.282;2023-05-10T11:28:48;34.43;;;21.33;;
1366;SDS011;16877;48.810;9.282;2023-05-10T11:31:31;17.90;;;10.30;;
1366;SDS011;16877;48.810;9.282;2023-05-10T11:33:58;14.63;;;7.17;;
1366;SDS011;16877;48.810;9.282;2023-05-10T11:36:29;13.90;;;6.33;;
1366;SDS011;16877;48.810;9.282;2023-05-10T11:39:01;13.60;;;6.50;;
1366;SDS011;16877;48.810;9.282;2023-05-10T11:41:29;7.83;;;3.27;;
1366;SDS011;16877;48.810;9.282;2023-05-10T11:43:57;9.17;;;4.77;;
1366;SDS011;16877;48.810;9.282;2023-05-10T11:46:25;9.43;;;3.90;;
1366;SDS011;16877;48.810;9.282;2023-05-10T11:48:59;7.23;;;3.37;;
1366;SDS011;16877;48.810;9.282;2023-05-10T11:51:32;4.87;;;2.03;;
1366;SDS011;16877;48.810;9.282;2023-05-10T11:54:05;4.20;;;1.70;;
1366;SDS011;16877;48.810;9.282;2023-05-10T11:56:33;3.07;;;1.30;;
1366;SDS011;16877;48.810;9.282;2023-05-10T11:59:03;2.20;;;1.00;;
1366;SDS011;16877;48.810;9.282;2023-05-10T12:01:31;2.40;;;1.33;;
1366;SDS011;16877;48.810;9.282;2023-05-10T12:04:01;1.70;;;0.70;;
1366;SDS011;16877;48.810;9.282;2023-05-10T12:06:32;1.90;;;0.63;;
1366;SDS011;16877;48.810;9.282;2023-05-10T12:09:21;3.63;;;1.00;;
1366;SDS011;16877;48.810;9.282;2023-05-10T12:11:48;1.70;;;0.60;;
1366;SDS011;16877;48.810;9.282;2023-05-10T12:14:21;2.50;;;0.77;;
1366;SDS011;16877;48.810;9.282;2023-05-10T12:16:49;2.23;;;0.90;;
1366;SDS011;16877;48.810;9.282;2023-05-10T12:19:18;2.20;;;0.83;;
1366;SDS011;16877;48.810;9.282;2023-05-10T12:21:47;3.30;;;0.80;;
1366;SDS011;16877;48.810;9.282;2023-05-10T12:24:15;2.30;;;0.93;;
1366;SDS011;16877;48.810;9.282;2023-05-10T12:26:44;3.17;;;0.93;;
1366;SDS011;16877;48.810;9.282;2023-05-10T12:29:13;2.63;;;1.10;;
1366;SDS011;16877;48.810;9.282;2023-05-10T12:31:54;3.97;;;1.20;;
1366;SDS011;16877;48.810;9.282;2023-05-10T12:34:23;2.30;;;1.17;;
1366;SDS011;16877;48.810;9.282;2023-05-10T12:37:00;5.63;;;1.00;;
1366;SDS011;16877;48.810;9.282;2023-05-10T12:39:38;3.33;;;1.07;;
1366;SDS011;16877;48.810;9.282;2023-05-10T12:42:06;4.17;;;1.07;;
1366;SDS011;16877;48.810;9.282;2023-05-10T12:44:35;2.27;;;1.03;;
1366;SDS011;16877;48.810;9.282;2023-05-10T12:47:09;2.87;;;1.00;;
1366;SDS011;16877;48.810;9.282;2023-05-10T12:49:46;2.33;;;0.90;;
1366;SDS011;16877;48.810;9.282;2023-05-10T12:52:16;2.10;;;0.90;;
1366;SDS011;16877;48.810;9.282;2023-05-10T12:54:45;2.73;;;0.90;;
1366;SDS011;16877;48.810;9.282;2023-05-10T12:57:14;2.40;;;0.90;;
1366;SDS011;16877;48.810;9.282;2023-05-10T12:59:57;2.33;;;0.90;;
1366;SDS011;16877;48.810;9.282;2023-05-10T13:02:38;2.00;;;1.03;;
1366;SDS011;16877;48.810;9.282;2023-05-10T13:05:06;1.77;;;0.80;;
1366;SDS011;16877;48.810;9.282;2023-05-10T13:07:36;3.10;;;0.90;;
1366;SDS011;16877;48.810;9.282;2023-05-10T13:10:04;2.47;;;1.00;;
1366;SDS011;16877;48.810;9.282;2023-05-10T13:12:33;1.90;;;0.70;;
1366;SDS011;16877;48.810;9.282;2023-05-10T13:15:00;2.50;;;0.80;;
1366;SDS011;16877;48.810;9.282;2023-05-10T13:17:28;2.60;;;0.73;;
1366;SDS011;16877;48.810;9.282;2023-05-10T13:19:56;2.90;;;0.90;;
1366;SDS011;16877;48.810;9.282;2023-05-10T13:22:23;2.07;;;0.70;;
1366;SDS011;16877;48.810;9.282;2023-05-10T13:24:56;2.13;;;1.23;;
1366;SDS011;16877;48.810;9.282;2023-05-10T13:27:24;3.20;;;1.27;;
1366;SDS011;16877;48.810;9.282;2023-05-10T13:29:52;2.73;;;1.27;;
1366;SDS011;16877;48.810;9.282;2023-05-10T13:32:20;2.97;;;1.10;;
1366;SDS011;16877;48.810;9.282;2023-05-10T13:34:47;1.83;;;0.70;;
1366;SDS011;16877;48.810;9.282;2023-05-10T13:37:15;1.77;;;0.73;;
1366;SDS011;16877;48.810;9.282;2023-05-10T13:39:42;2.87;;;0.90;;
1366;SDS011;16877;48.810;9.282;2023-05-10T13:42:12;2.00;;;0.80;;
1366;SDS011;16877;48.810;9.282;2023-05-10T13:44:40;2.50;;;1.03;;
1366;SDS011;16877;48.810;9.282;2023-05-10T13:47:23;2.20;;;0.70;;
1366;SDS011;16877;48.810;9.282;2023-05-10T13:49:50;3.00;;;1.00;;
1366;SDS011;16877;48.810;9.282;2023-05-10T13:52:18;1.83;;;0.70;;
1366;SDS011;16877;48.810;9.282;2023-05-10T13:55:00;2.80;;;0.80;;
1366;SDS011;16877;48.810;9.282;2023-05-10T13:57:29;3.30;;;1.00;;
1366;SDS011;16877;48.810;9.282;2023-05-10T13:59:57;5.00;;;0.90;;
1366;SDS011;16877;48.810;9.282;2023-05-10T14:02:25;3.63;;;1.20;;
1366;SDS011;16877;48.810;9.282;2023-05-10T14:04:53;3.10;;;0.87;;
1366;SDS011;16877;48.810;9.282;2023-05-10T14:07:21;2.10;;;0.80;;
1366;SDS011;16877;48.810;9.282;2023-05-10T14:09:52;3.53;;;0.73;;
1366;SDS011;16877;48.810;9.282;2023-05-10T14:12:20;1.70;;;0.70;;
1366;SDS011;16877;48.810;9.282;2023-05-10T14:15:04;2.10;;;0.80;;
1366;SDS011;16877;48.810;9.282;2023-05-10T14:17:32;4.33;;;0.80;;
1366;SDS011;16877;48.810;9.282;2023-05-10T14:20:00;2.57;;;0.67;;
1366;SDS011;16877;48.810;9.282;2023-05-10T14:22:28;3.60;;;1.00;;
1366;SDS011;16877;48.810;9.282;2023-05-10T14:24:56;2.90;;;0.70;;
1366;SDS011;16877;48.810;9.282;2023-05-10T14:27:23;3.10;;;1.03;;
1366;SDS011;16877;48.810;9.282;2023-05-10T14:29:51;2.77;;;1.07;;
1366;SDS011;16877;48.810;9.282;2023-05-10T14:32:21;5.13;;;1.10;;
1366;SDS011;16877;48.810;9.282;2023-05-10T14:34:49;4.70;;;1.30;;
1366;SDS011;16877;48.810;9.282;2023-05-10T14:37:16;2.40;;;1.10;;
1366;SDS011;16877;48.810;9.282;2023-05-10T14:39:44;2.30;;;1.00;;
1366;SDS011;16877;48.810;9.282;2023-05-10T14:42:11;2.60;;;1.00;;
1366;SDS011;16877;48.810;9.282;2023-05-10T14:44:39;2.57;;;1.03;;
1366;SDS011;16877;48.810;9.282;2023-05-10T14:47:07;3.07;;;0.90;;
1366;SDS011;16877;48.810;9.282;2023-05-10T14:49:36;2.63;;;0.93;;
1366;SDS011;16877;48.810;9.282;2023-05-10T14:52:04;2.63;;;0.90;;
1366;SDS011;16877;48.810;9.282;2023-05-10T14:54:32;2.10;;;0.80;;
1366;SDS011;16877;48.810;9.282;2023-05-10T14:56:59;2.50;;;0.70;;
1366;SDS011;16877;48.810;9.282;2023-05-10T14:59:29;2.40;;;0.90;;
1366;SDS011;16877;48.810;9.282;2023-05-10T15:01:59;1.70;;;0.67;;
1366;SDS011;16877;48.810;9.282;2023-05-10T15:04:26;2.43;;;0.80;;
1366;SDS011;16877;48.810;9.282;2023-05-10T15:06:56;1.97;;;0.70;;
1366;SDS011;16877;48.810;9.282;2023-05-10T15:09:24;2.30;;;0.93;;
1366;SDS011;16877;48.810;9.282;2023-05-10T15:11:52;5.40;;;2.00;;
1366;SDS011;16877;48.810;9.282;2023-05-10T15:14:20;4.27;;;0.90;;
1366;SDS011;16877;48.810;9.282;2023-05-10T15:17:02;2.00;;;0.80;;
1366;SDS011;16877;48.810;9.282;2023-05-10T15:19:29;3.33;;;1.23;;
1366;SDS011;16877;48.810;9.282;2023-05-10T15:22:00;2.47;;;0.80;;
1366;SDS011;16877;48.810;9.282;2023-05-10T15:24:27;4.57;;;1.40;;
1366;SDS011;16877;48.810;9.282;2023-05-10T15:26:55;1.80;;;0.70;;